sensor_id;sensor_type;location;lat;lon;timestamp;P1;durP1;ratioP1;P2;durP2;ratioP2
18879;SDS011;9572;52.378;13.404;2022-07-23T00:01:49;5.75;;;5.18;;
18879;SDS011;9572;52.378;13.404;2022-07-23T00:04:16;6.07;;;4.93;;
18879;SDS011;9572;52.378;13.404;2022-07-23T00:06:43;5.72;;;5.13;;
18879;SDS011;9572;52.378;13.404;2022-07-23T00:09:10;7.18;;;5.05;;
18879;SDS011;9572;52.378;13.404;2022-07-23T00:11:37;6.28;;;5.05;;
18879;SDS011;9572;52.378;13.404;2022-07-23T00:14:04;6.10;;;5.53;;
18879;SDS011;9572;52.378;13.404;2022-07-23T00:16:32;7.53;;;5.00;;
18879;SDS011;9572;52.378;13.404;2022-07-23T00:18:59;6.10;;;5.40;;
18879;SDS011;9572;52.378;13.404;2022-07-23T00:21:27;8.55;;;5.20;;
18879;SDS011;9572;52.378;13.404;2022-07-23T00:23:54;7.50;;;5.47;;
18879;SDS011;9572;52.378;13.404;2022-07-23T00:26:21;6.75;;;5.20;;
18879;SDS011;9572;52.378;13.404;2022-07-23T00:28:48;8.10;;;6.15;;
18879;SDS011;9572;52.378;13.404;2022-07-23T00:31:15;7.13;;;5.40;;
18879;SDS011;9572;52.378;13.404;2022-07-23T00:33:44;9.73;;;6.00;;
18879;SDS011;9572;52.378;13.404;2022-07-23T00:36:10;8.15;;;5.78;;
18879;SDS011;9572;52.378;13.404;2022-07-23T00:38:37;6.32;;;5.68;;
18879;SDS011;9572;52.378;13.404;2022-07-23T00:41:04;8.40;;;5.75;;
18879;SDS011;9572;52.378;13.404;2022-07-23T00:43:31;9.00;;;6.47;;
18879;SDS011;9572;52.378;13.404;2022-07-23T00:45:58;9.38;;;6.22;;
18879;SDS011;9572;52.378;13.404;2022-07-23T00:48:25;11.15;;;6.70;;
18879;SDS011;9572;52.378;13.404;2022-07-23T00:50:53;9.68;;;6.47;;
18879;SDS011;9572;52.378;13.404;2022-07-23T00:53:20;9.98;;;6.28;;
18879;SDS011;9572;52.378;13.404;2022-07-23T00:55:47;6.70;;;6.00;;
18879;SDS011;9572;52.378;13.404;2022-07-23T00:58:14;8.38;;;6.32;;
18879;SDS011;9572;52.378;13.404;2022-07-23T01:00:42;7.72;;;5.93;;
18879;SDS011;9572;52.378;13.404;2022-07-23T01:03:10;7.00;;;6.30;;
18879;SDS011;9572;52.378;13.404;2022-07-23T01:05:47;10.90;;;7.07;;
18879;SDS011;9572;52.378;13.404;2022-07-23T01:08:16;8.80;;;6.22;;
18879;SDS011;9572;52.378;13.404;2022-07-23T01:10:43;9.82;;;7.25;;
18879;SDS011;9572;52.378;13.404;2022-07-23T01:13:10;7.65;;;6.57;;
18879;SDS011;9572;52.378;13.404;2022-07-23T01:15:37;8.07;;;6.35;;
18879;SDS011;9572;52.378;13.404;2022-07-23T01:18:05;8.07;;;6.75;;
18879;SDS011;9572;52.378;13.404;2022-07-23T01:20:33;8.52;;;6.45;;
18879;SDS011;9572;52.378;13.404;2022-07-23T01:23:01;11.30;;;6.45;;
18879;SDS011;9572;52.378;13.404;2022-07-23T01:25:28;8.93;;;6.40;;
18879;SDS011;9572;52.378;13.404;2022-07-23T01:27:56;11.35;;;6.85;;
18879;SDS011;9572;52.378;13.404;2022-07-23T01:30:23;11.48;;;7.18;;
18879;SDS011;9572;52.378;13.404;2022-07-23T01:32:50;8.48;;;6.30;;
18879;SDS011;9572;52.378;13.404;2022-07-23T01:35:17;7.93;;;6.40;;
18879;SDS011;9572;52.378;13.404;2022-07-23T01:37:44;8.93;;;6.00;;
18879;SDS011;9572;52.378;13.404;2022-07-23T01:40:12;8.48;;;6.40;;
18879;SDS011;9572;52.378;13.404;2022-07-23T01:42:39;7.07;;;5.80;;
18879;SDS011;9572;52.378;13.404;2022-07-23T01:45:06;6.93;;;5.88;;
18879;SDS011;9572;52.378;13.404;2022-07-23T01:47:34;7.45;;;5.80;;
18879;SDS011;9572;52.378;13.404;2022-07-23T01:50:01;7.38;;;6.28;;
18879;SDS011;9572;52.378;13.404;2022-07-23T01:52:28;7.97;;;6.32;;
18879;SDS011;9572;52.378;13.404;2022-07-23T01:54:55;6.78;;;5.97;;
18879;SDS011;9572;52.378;13.404;2022-07-23T01:57:23;6.28;;;5.68;;
18879;SDS011;9572;52.378;13.404;2022-07-23T01:59:50;7.10;;;6.25;;
18879;SDS011;9572;52.378;13.404;2022-07-23T02:02:17;6.43;;;5.80;;
18879;SDS011;9572;52.378;13.404;2022-07-23T02:04:44;9.35;;;6.80;;
18879;SDS011;9572;52.378;13.404;2022-07-23T02:07:11;6.75;;;5.68;;
18879;SDS011;9572;52.378;13.404;2022-07-23T02:09:38;6.70;;;5.93;;
18879;SDS011;9572;52.378;13.404;2022-07-23T02:12:05;6.47;;;5.82;;
18879;SDS011;9572;52.378;13.404;2022-07-23T02:14:33;7.13;;;6.43;;
18879;SDS011;9572;52.378;13.404;2022-07-23T02:17:00;6.82;;;6.00;;
18879;SDS011;9572;52.378;13.404;2022-07-23T02:19:27;7.28;;;6.35;;
18879;SDS011;9572;52.378;13.404;2022-07-23T02:21:54;9.23;;;5.82;;
18879;SDS011;9572;52.378;13.404;2022-07-23T02:24:21;6.30;;;5.70;;
18879;SDS011;9572;52.378;13.404;2022-07-23T02:26:48;8.55;;;6.20;;
18879;SDS011;9572;52.378;13.404;2022-07-23T02:29:15;6.50;;;5.70;;
18879;SDS011;9572;52.378;13.404;2022-07-23T02:31:43;7.32;;;6.13;;
18879;SDS011;9572;52.378;13.404;2022-07-23T02:34:10;6.95;;;5.65;;
18879;SDS011;9572;52.378;13.404;2022-07-23T02:36:37;8.30;;;5.65;;
18879;SDS011;9572;52.378;13.404;2022-07-23T02:39:04;8.65;;;6.07;;
18879;SDS011;9572;52.378;13.404;2022-07-23T02:41:31;9.85;;;6.30;;
18879;SDS011;9572;52.378;13.404;2022-07-23T02:43:58;6.80;;;6.05;;
18879;SDS011;9572;52.378;13.404;2022-07-23T02:46:25;6.47;;;5.85;;
18879;SDS011;9572;52.378;13.404;2022-07-23T02:48:53;9.65;;;6.07;;
18879;SDS011;9572;52.378;13.404;2022-07-23T02:51:20;6.68;;;5.55;;
18879;SDS011;9572;52.378;13.404;2022-07-23T02:53:47;8.60;;;5.65;;
18879;SDS011;9572;52.378;13.404;2022-07-23T02:56:14;6.72;;;5.43;;
18879;SDS011;9572;52.378;13.404;2022-07-23T02:58:41;8.40;;;6.07;;
18879;SDS011;9572;52.378;13.404;2022-07-23T03:01:08;7.70;;;5.97;;
18879;SDS011;9572;52.378;13.404;2022-07-23T03:03:35;9.27;;;5.63;;
18879;SDS011;9572;52.378;13.404;2022-07-23T03:06:03;5.75;;;5.25;;
18879;SDS011;9572;52.378;13.404;2022-07-23T03:08:31;6.30;;;5.20;;
18879;SDS011;9572;52.378;13.404;2022-07-23T03:10:58;8.38;;;5.75;;
18879;SDS011;9572;52.378;13.404;2022-07-23T03:13:24;8.80;;;5.85;;
18879;SDS011;9572;52.378;13.404;2022-07-23T03:15:51;6.85;;;5.50;;
18879;SDS011;9572;52.378;13.404;2022-07-23T03:18:18;7.00;;;5.72;;
18879;SDS011;9572;52.378;13.404;2022-07-23T03:20:45;5.93;;;5.32;;
18879;SDS011;9572;52.378;13.404;2022-07-23T03:23:13;6.97;;;6.22;;
18879;SDS011;9572;52.378;13.404;2022-07-23T03:25:41;8.23;;;5.65;;
18879;SDS011;9572;52.378;13.404;2022-07-23T03:28:08;8.85;;;5.55;;
18879;SDS011;9572;52.378;13.404;2022-07-23T03:30:35;7.07;;;6.13;;
18879;SDS011;9572;52.378;13.404;2022-07-23T03:33:02;7.45;;;5.88;;
18879;SDS011;9572;52.378;13.404;2022-07-23T03:35:29;7.25;;;5.65;;
18879;SDS011;9572;52.378;13.404;2022-07-23T03:37:56;6.63;;;5.90;;
18879;SDS011;9572;52.378;13.404;2022-07-23T03:40:24;8.38;;;6.28;;
18879;SDS011;9572;52.378;13.404;2022-07-23T03:42:51;8.90;;;5.70;;
18879;SDS011;9572;52.378;13.404;2022-07-23T03:45:18;7.47;;;5.75;;
18879;SDS011;9572;52.378;13.404;2022-07-23T03:47:45;8.60;;;6.10;;
18879;SDS011;9572;52.378;13.404;2022-07-23T03:50:12;7.15;;;6.22;;
18879;SDS011;9572;52.378;13.404;2022-07-23T03:52:39;5.65;;;5.13;;
18879;SDS011;9572;52.378;13.404;2022-07-23T03:55:06;11.52;;;5.85;;
18879;SDS011;9572;52.378;13.404;2022-07-23T03:57:35;9.60;;;5.80;;
18879;SDS011;9572;52.378;13.404;2022-07-23T04:00:02;10.02;;;6.13;;
18879;SDS011;9572;52.378;13.404;2022-07-23T04:02:30;8.25;;;5.88;;
18879;SDS011;9572;52.378;13.404;2022-07-23T04:04:57;7.53;;;5.60;;
18879;SDS011;9572;52.378;13.404;2022-07-23T04:07:24;8.68;;;6.00;;
18879;SDS011;9572;52.378;13.404;2022-07-23T04:09:51;10.25;;;5.95;;
18879;SDS011;9572;52.378;13.404;2022-07-23T04:12:18;9.52;;;5.63;;
18879;SDS011;9572;52.378;13.404;2022-07-23T04:14:48;7.65;;;6.20;;
18879;SDS011;9572;52.378;13.404;2022-07-23T04:17:15;8.73;;;5.90;;
18879;SDS011;9572;52.378;13.404;2022-07-23T04:19:42;10.35;;;5.78;;
18879;SDS011;9572;52.378;13.404;2022-07-23T04:22:09;8.32;;;5.07;;
18879;SDS011;9572;52.378;13.404;2022-07-23T04:24:36;9.27;;;4.78;;
18879;SDS011;9572;52.378;13.404;2022-07-23T04:27:04;7.93;;;4.60;;
18879;SDS011;9572;52.378;13.404;2022-07-23T04:29:31;10.60;;;4.63;;
18879;SDS011;9572;52.378;13.404;2022-07-23T04:31:59;14.18;;;4.70;;
18879;SDS011;9572;52.378;13.404;2022-07-23T04:34:26;9.10;;;3.92;;
18879;SDS011;9572;52.378;13.404;2022-07-23T04:36:53;7.13;;;4.00;;
18879;SDS011;9572;52.378;13.404;2022-07-23T04:39:20;11.05;;;4.60;;
18879;SDS011;9572;52.378;13.404;2022-07-23T04:41:47;6.45;;;4.05;;
18879;SDS011;9572;52.378;13.404;2022-07-23T04:44:14;14.43;;;4.68;;
18879;SDS011;9572;52.378;13.404;2022-07-23T04:46:41;8.30;;;3.45;;
18879;SDS011;9572;52.378;13.404;2022-07-23T04:49:09;10.55;;;5.00;;
18879;SDS011;9572;52.378;13.404;2022-07-23T04:51:36;9.20;;;4.05;;
18879;SDS011;9572;52.378;13.404;2022-07-23T04:54:03;10.13;;;4.47;;
18879;SDS011;9572;52.378;13.404;2022-07-23T04:56:30;11.82;;;5.65;;
18879;SDS011;9572;52.378;13.404;2022-07-23T04:58:57;8.70;;;4.63;;
18879;SDS011;9572;52.378;13.404;2022-07-23T05:01:25;9.02;;;4.07;;
18879;SDS011;9572;52.378;13.404;2022-07-23T05:03:52;9.35;;;4.05;;
18879;SDS011;9572;52.378;13.404;2022-07-23T05:06:21;9.65;;;4.40;;
18879;SDS011;9572;52.378;13.404;2022-07-23T05:08:48;7.93;;;4.50;;
18879;SDS011;9572;52.378;13.404;2022-07-23T05:11:15;7.82;;;3.65;;
18879;SDS011;9572;52.378;13.404;2022-07-23T05:13:42;7.03;;;3.83;;
18879;SDS011;9572;52.378;13.404;2022-07-23T05:16:08;12.20;;;4.13;;
18879;SDS011;9572;52.378;13.404;2022-07-23T05:18:35;10.98;;;4.45;;
18879;SDS011;9572;52.378;13.404;2022-07-23T05:21:02;8.73;;;3.97;;
18879;SDS011;9572;52.378;13.404;2022-07-23T05:23:31;12.25;;;4.15;;
18879;SDS011;9572;52.378;13.404;2022-07-23T05:25:58;7.90;;;4.07;;
18879;SDS011;9572;52.378;13.404;2022-07-23T05:28:25;12.02;;;4.30;;
18879;SDS011;9572;52.378;13.404;2022-07-23T05:30:55;9.38;;;4.07;;
18879;SDS011;9572;52.378;13.404;2022-07-23T05:33:25;9.23;;;4.30;;
18879;SDS011;9572;52.378;13.404;2022-07-23T05:35:52;10.40;;;4.70;;
18879;SDS011;9572;52.378;13.404;2022-07-23T05:38:19;8.60;;;3.70;;
18879;SDS011;9572;52.378;13.404;2022-07-23T05:40:47;6.57;;;3.38;;
18879;SDS011;9572;52.378;13.404;2022-07-23T05:43:14;13.48;;;4.55;;
18879;SDS011;9572;52.378;13.404;2022-07-23T05:45:43;4.07;;;3.38;;
18879;SDS011;9572;52.378;13.404;2022-07-23T05:48:10;9.63;;;4.13;;
18879;SDS011;9572;52.378;13.404;2022-07-23T05:50:37;7.78;;;3.78;;
18879;SDS011;9572;52.378;13.404;2022-07-23T05:53:04;7.40;;;3.55;;
18879;SDS011;9572;52.378;13.404;2022-07-23T05:55:31;7.40;;;3.67;;
18879;SDS011;9572;52.378;13.404;2022-07-23T05:58:00;11.68;;;3.75;;
18879;SDS011;9572;52.378;13.404;2022-07-23T06:00:27;7.47;;;3.28;;
18879;SDS011;9572;52.378;13.404;2022-07-23T06:02:56;6.25;;;2.90;;
18879;SDS011;9572;52.378;13.404;2022-07-23T06:05:23;6.38;;;3.72;;
18879;SDS011;9572;52.378;13.404;2022-07-23T06:07:50;10.95;;;3.72;;
18879;SDS011;9572;52.378;13.404;2022-07-23T06:10:18;6.55;;;3.65;;
18879;SDS011;9572;52.378;13.404;2022-07-23T06:12:45;7.22;;;3.50;;
18879;SDS011;9572;52.378;13.404;2022-07-23T06:15:13;7.45;;;3.40;;
18879;SDS011;9572;52.378;13.404;2022-07-23T06:17:40;7.10;;;3.40;;
18879;SDS011;9572;52.378;13.404;2022-07-23T06:20:08;9.38;;;3.60;;
18879;SDS011;9572;52.378;13.404;2022-07-23T06:22:36;8.52;;;3.67;;
18879;SDS011;9572;52.378;13.404;2022-07-23T06:25:04;9.50;;;3.88;;
18879;SDS011;9572;52.378;13.404;2022-07-23T06:27:32;7.15;;;4.00;;
18879;SDS011;9572;52.378;13.404;2022-07-23T06:29:59;8.40;;;3.45;;
18879;SDS011;9572;52.378;13.404;2022-07-23T06:32:27;5.93;;;3.50;;
18879;SDS011;9572;52.378;13.404;2022-07-23T06:34:54;11.75;;;3.85;;
18879;SDS011;9572;52.378;13.404;2022-07-23T06:37:21;6.32;;;3.90;;
18879;SDS011;9572;52.378;13.404;2022-07-23T06:39:48;8.98;;;4.10;;
18879;SDS011;9572;52.378;13.404;2022-07-23T06:42:15;10.57;;;4.20;;
18879;SDS011;9572;52.378;13.404;2022-07-23T06:44:42;9.07;;;4.32;;
18879;SDS011;9572;52.378;13.404;2022-07-23T06:47:09;9.07;;;4.97;;
18879;SDS011;9572;52.378;13.404;2022-07-23T06:49:37;10.82;;;6.47;;
18879;SDS011;9572;52.378;13.404;2022-07-23T06:52:06;8.85;;;4.10;;
18879;SDS011;9572;52.378;13.404;2022-07-23T06:54:33;7.28;;;4.30;;
18879;SDS011;9572;52.378;13.404;2022-07-23T06:57:00;9.57;;;4.00;;
18879;SDS011;9572;52.378;13.404;2022-07-23T06:59:27;7.50;;;4.10;;
18879;SDS011;9572;52.378;13.404;2022-07-23T07:01:54;11.27;;;4.10;;
18879;SDS011;9572;52.378;13.404;2022-07-23T07:04:22;6.93;;;3.95;;
18879;SDS011;9572;52.378;13.404;2022-07-23T07:06:50;12.65;;;5.15;;
18879;SDS011;9572;52.378;13.404;2022-07-23T07:09:17;10.98;;;4.65;;
18879;SDS011;9572;52.378;13.404;2022-07-23T07:11:44;7.10;;;4.32;;
18879;SDS011;9572;52.378;13.404;2022-07-23T07:14:11;6.97;;;3.90;;
18879;SDS011;9572;52.378;13.404;2022-07-23T07:16:38;5.53;;;3.70;;
18879;SDS011;9572;52.378;13.404;2022-07-23T07:19:05;5.72;;;3.25;;
18879;SDS011;9572;52.378;13.404;2022-07-23T07:21:32;9.15;;;4.18;;
18879;SDS011;9572;52.378;13.404;2022-07-23T07:24:01;6.63;;;4.05;;
18879;SDS011;9572;52.378;13.404;2022-07-23T07:26:28;8.45;;;3.83;;
18879;SDS011;9572;52.378;13.404;2022-07-23T07:28:56;7.18;;;3.78;;
18879;SDS011;9572;52.378;13.404;2022-07-23T07:31:22;9.05;;;4.63;;
18879;SDS011;9572;52.378;13.404;2022-07-23T07:33:49;11.52;;;4.20;;
18879;SDS011;9572;52.378;13.404;2022-07-23T07:36:16;7.75;;;4.15;;
18879;SDS011;9572;52.378;13.404;2022-07-23T07:38:44;5.63;;;3.85;;
18879;SDS011;9572;52.378;13.404;2022-07-23T07:41:12;4.55;;;3.15;;
18879;SDS011;9572;52.378;13.404;2022-07-23T07:43:39;6.78;;;3.92;;
18879;SDS011;9572;52.378;13.404;2022-07-23T07:46:06;6.43;;;4.03;;
18879;SDS011;9572;52.378;13.404;2022-07-23T07:48:35;6.93;;;3.88;;
18879;SDS011;9572;52.378;13.404;2022-07-23T07:51:02;9.43;;;4.50;;
18879;SDS011;9572;52.378;13.404;2022-07-23T07:53:29;7.93;;;4.18;;
18879;SDS011;9572;52.378;13.404;2022-07-23T07:55:56;8.70;;;4.10;;
18879;SDS011;9572;52.378;13.404;2022-07-23T07:58:27;8.90;;;5.10;;
18879;SDS011;9572;52.378;13.404;2022-07-23T08:00:54;7.50;;;4.65;;
18879;SDS011;9572;52.378;13.404;2022-07-23T08:03:21;11.48;;;4.28;;
18879;SDS011;9572;52.378;13.404;2022-07-23T08:05:48;12.00;;;5.03;;
18879;SDS011;9572;52.378;13.404;2022-07-23T08:08:15;4.05;;;3.42;;
18879;SDS011;9572;52.378;13.404;2022-07-23T08:10:42;9.20;;;4.65;;
18879;SDS011;9572;52.378;13.404;2022-07-23T08:13:11;7.68;;;4.97;;
18879;SDS011;9572;52.378;13.404;2022-07-23T08:15:42;8.43;;;4.25;;
18879;SDS011;9572;52.378;13.404;2022-07-23T08:18:09;10.50;;;5.50;;
18879;SDS011;9572;52.378;13.404;2022-07-23T08:20:36;8.70;;;4.38;;
18879;SDS011;9572;52.378;13.404;2022-07-23T08:23:04;7.80;;;4.50;;
18879;SDS011;9572;52.378;13.404;2022-07-23T08:25:32;8.55;;;3.88;;
18879;SDS011;9572;52.378;13.404;2022-07-23T08:28:01;10.05;;;4.80;;
18879;SDS011;9572;52.378;13.404;2022-07-23T08:30:30;5.47;;;3.65;;
18879;SDS011;9572;52.378;13.404;2022-07-23T08:33:00;6.53;;;3.90;;
18879;SDS011;9572;52.378;13.404;2022-07-23T08:35:29;7.60;;;4.30;;
18879;SDS011;9572;52.378;13.404;2022-07-23T08:37:58;8.98;;;4.28;;
18879;SDS011;9572;52.378;13.404;2022-07-23T08:40:27;8.35;;;4.68;;
18879;SDS011;9572;52.378;13.404;2022-07-23T08:42:56;10.52;;;5.28;;
18879;SDS011;9572;52.378;13.404;2022-07-23T08:45:23;8.48;;;5.38;;
18879;SDS011;9572;52.378;13.404;2022-07-23T08:47:52;9.50;;;5.40;;
18879;SDS011;9572;52.378;13.404;2022-07-23T08:50:23;10.65;;;5.35;;
18879;SDS011;9572;52.378;13.404;2022-07-23T08:52:51;8.38;;;5.22;;
18879;SDS011;9572;52.378;13.404;2022-07-23T08:55:19;9.02;;;5.93;;
18879;SDS011;9572;52.378;13.404;2022-07-23T08:57:48;9.80;;;5.13;;
18879;SDS011;9572;52.378;13.404;2022-07-23T09:00:17;6.63;;;4.32;;
18879;SDS011;9572;52.378;13.404;2022-07-23T09:02:45;9.90;;;6.03;;
18879;SDS011;9572;52.378;13.404;2022-07-23T09:05:13;9.75;;;5.60;;
18879;SDS011;9572;52.378;13.404;2022-07-23T09:10:43;10.73;;;6.60;;
18879;SDS011;9572;52.378;13.404;2022-07-23T09:13:31;9.60;;;4.80;;
18879;SDS011;9572;52.378;13.404;2022-07-23T09:16:04;7.45;;;5.43;;
18879;SDS011;9572;52.378;13.404;2022-07-23T09:18:34;5.53;;;4.22;;
18879;SDS011;9572;52.378;13.404;2022-07-23T09:21:14;7.18;;;4.72;;
18879;SDS011;9572;52.378;13.404;2022-07-23T09:23:45;6.30;;;4.20;;
18879;SDS011;9572;52.378;13.404;2022-07-23T09:26:18;6.32;;;4.40;;
18879;SDS011;9572;52.378;13.404;2022-07-23T09:28:50;6.78;;;4.50;;
18879;SDS011;9572;52.378;13.404;2022-07-23T09:31:22;9.65;;;4.03;;
18879;SDS011;9572;52.378;13.404;2022-07-23T09:33:50;11.18;;;4.80;;
18879;SDS011;9572;52.378;13.404;2022-07-23T09:36:26;7.68;;;4.55;;
18879;SDS011;9572;52.378;13.404;2022-07-23T09:38:56;8.18;;;4.45;;
18879;SDS011;9572;52.378;13.404;2022-07-23T09:41:23;4.55;;;3.17;;
18879;SDS011;9572;52.378;13.404;2022-07-23T09:43:56;10.00;;;4.43;;
18879;SDS011;9572;52.378;13.404;2022-07-23T09:46:24;7.13;;;4.72;;
18879;SDS011;9572;52.378;13.404;2022-07-23T09:48:52;7.68;;;4.18;;
18879;SDS011;9572;52.378;13.404;2022-07-23T09:51:21;7.57;;;4.25;;
18879;SDS011;9572;52.378;13.404;2022-07-23T09:53:53;7.50;;;4.57;;
18879;SDS011;9572;52.378;13.404;2022-07-23T09:56:21;9.48;;;4.00;;
18879;SDS011;9572;52.378;13.404;2022-07-23T09:58:49;8.93;;;3.70;;
18879;SDS011;9572;52.378;13.404;2022-07-23T10:01:26;8.18;;;3.85;;
18879;SDS011;9572;52.378;13.404;2022-07-23T10:03:54;6.72;;;4.50;;
18879;SDS011;9572;52.378;13.404;2022-07-23T10:06:21;6.22;;;3.83;;
18879;SDS011;9572;52.378;13.404;2022-07-23T10:08:49;8.88;;;3.85;;
18879;SDS011;9572;52.378;13.404;2022-07-23T10:11:17;6.47;;;3.63;;
18879;SDS011;9572;52.378;13.404;2022-07-23T10:13:45;7.70;;;4.30;;
18879;SDS011;9572;52.378;13.404;2022-07-23T10:16:19;9.05;;;3.45;;
18879;SDS011;9572;52.378;13.404;2022-07-23T10:18:47;8.00;;;3.70;;
18879;SDS011;9572;52.378;13.404;2022-07-23T10:21:16;14.38;;;8.45;;
18879;SDS011;9572;52.378;13.404;2022-07-23T10:23:51;6.28;;;3.88;;
18879;SDS011;9572;52.378;13.404;2022-07-23T10:26:31;7.55;;;3.28;;
18879;SDS011;9572;52.378;13.404;2022-07-23T10:29:08;7.88;;;3.33;;
18879;SDS011;9572;52.378;13.404;2022-07-23T10:31:47;6.18;;;3.22;;
18879;SDS011;9572;52.378;13.404;2022-07-23T10:34:21;6.57;;;3.05;;
18879;SDS011;9572;52.378;13.404;2022-07-23T10:36:56;7.22;;;3.90;;
18879;SDS011;9572;52.378;13.404;2022-07-23T10:39:28;6.38;;;3.47;;
18879;SDS011;9572;52.378;13.404;2022-07-23T10:42:07;4.78;;;3.33;;
18879;SDS011;9572;52.378;13.404;2022-07-23T10:44:39;5.97;;;2.70;;
18879;SDS011;9572;52.378;13.404;2022-07-23T10:47:08;7.10;;;3.00;;
18879;SDS011;9572;52.378;13.404;2022-07-23T10:49:43;5.57;;;2.50;;
18879;SDS011;9572;52.378;13.404;2022-07-23T10:52:23;5.78;;;3.08;;
18879;SDS011;9572;52.378;13.404;2022-07-23T10:54:52;4.85;;;2.45;;
18879;SDS011;9572;52.378;13.404;2022-07-23T10:57:20;5.57;;;2.90;;
18879;SDS011;9572;52.378;13.404;2022-07-23T11:02:57;4.05;;;2.72;;
18879;SDS011;9572;52.378;13.404;2022-07-23T11:05:26;6.18;;;3.05;;
18879;SDS011;9572;52.378;13.404;2022-07-23T11:08:11;9.63;;;3.00;;
18879;SDS011;9572;52.378;13.404;2022-07-23T11:10:41;6.72;;;2.78;;
18879;SDS011;9572;52.378;13.404;2022-07-23T11:13:29;6.00;;;2.53;;
18879;SDS011;9572;52.378;13.404;2022-07-23T11:18:55;5.68;;;2.75;;
18879;SDS011;9572;52.378;13.404;2022-07-23T11:21:45;6.97;;;2.83;;
18879;SDS011;9572;52.378;13.404;2022-07-23T11:24:13;4.97;;;2.70;;
18879;SDS011;9572;52.378;13.404;2022-07-23T11:26:46;7.30;;;2.78;;
18879;SDS011;9572;52.378;13.404;2022-07-23T11:32:05;6.20;;;2.67;;
18879;SDS011;9572;52.378;13.404;2022-07-23T11:34:35;3.47;;;2.47;;
18879;SDS011;9572;52.378;13.404;2022-07-23T11:37:06;3.22;;;2.08;;
18879;SDS011;9572;52.378;13.404;2022-07-23T11:39:35;5.30;;;2.72;;
18879;SDS011;9572;52.378;13.404;2022-07-23T11:42:02;4.47;;;2.50;;
18879;SDS011;9572;52.378;13.404;2022-07-23T11:44:32;5.45;;;3.00;;
18879;SDS011;9572;52.378;13.404;2022-07-23T11:47:01;7.45;;;2.85;;
18879;SDS011;9572;52.378;13.404;2022-07-23T11:49:29;5.57;;;2.90;;
18879;SDS011;9572;52.378;13.404;2022-07-23T11:52:05;4.90;;;2.58;;
18879;SDS011;9572;52.378;13.404;2022-07-23T11:54:33;10.15;;;2.42;;
18879;SDS011;9572;52.378;13.404;2022-07-23T11:57:01;6.50;;;2.85;;
18879;SDS011;9572;52.378;13.404;2022-07-23T11:59:30;4.22;;;2.47;;
18879;SDS011;9572;52.378;13.404;2022-07-23T12:01:59;5.75;;;3.08;;
18879;SDS011;9572;52.378;13.404;2022-07-23T12:04:36;5.00;;;2.65;;
18879;SDS011;9572;52.378;13.404;2022-07-23T12:07:08;6.20;;;3.15;;
18879;SDS011;9572;52.378;13.404;2022-07-23T12:09:52;4.43;;;2.65;;
18879;SDS011;9572;52.378;13.404;2022-07-23T12:12:19;4.07;;;2.80;;
18879;SDS011;9572;52.378;13.404;2022-07-23T12:14:48;5.00;;;2.90;;
18879;SDS011;9572;52.378;13.404;2022-07-23T12:17:15;8.45;;;2.85;;
18879;SDS011;9572;52.378;13.404;2022-07-23T12:19:42;3.25;;;2.38;;
18879;SDS011;9572;52.378;13.404;2022-07-23T12:22:11;3.05;;;2.60;;
18879;SDS011;9572;52.378;13.404;2022-07-23T12:24:55;7.30;;;3.28;;
18879;SDS011;9572;52.378;13.404;2022-07-23T12:27:23;6.15;;;3.10;;
18879;SDS011;9572;52.378;13.404;2022-07-23T12:29:51;28.90;;;5.47;;
18879;SDS011;9572;52.378;13.404;2022-07-23T12:32:20;5.97;;;2.60;;
18879;SDS011;9572;52.378;13.404;2022-07-23T12:34:51;3.85;;;2.85;;
18879;SDS011;9572;52.378;13.404;2022-07-23T12:37:31;7.43;;;3.30;;
18879;SDS011;9572;52.378;13.404;2022-07-23T12:42:49;4.95;;;2.90;;
18879;SDS011;9572;52.378;13.404;2022-07-23T12:45:20;4.25;;;2.90;;
18879;SDS011;9572;52.378;13.404;2022-07-23T12:47:51;7.88;;;3.10;;
18879;SDS011;9572;52.378;13.404;2022-07-23T12:53:19;7.32;;;3.20;;
18879;SDS011;9572;52.378;13.404;2022-07-23T12:55:50;9.15;;;3.72;;
18879;SDS011;9572;52.378;13.404;2022-07-23T12:58:23;14.35;;;4.10;;
18879;SDS011;9572;52.378;13.404;2022-07-23T13:00:54;3.70;;;2.60;;
18879;SDS011;9572;52.378;13.404;2022-07-23T13:03:31;5.18;;;3.08;;
18879;SDS011;9572;52.378;13.404;2022-07-23T13:06:00;8.93;;;3.15;;
18879;SDS011;9572;52.378;13.404;2022-07-23T13:08:30;6.93;;;3.30;;
18879;SDS011;9572;52.378;13.404;2022-07-23T13:10:58;5.72;;;3.10;;
18879;SDS011;9572;52.378;13.404;2022-07-23T13:13:26;3.65;;;3.17;;
18879;SDS011;9572;52.378;13.404;2022-07-23T13:15:56;4.03;;;2.88;;
18879;SDS011;9572;52.378;13.404;2022-07-23T13:18:25;3.72;;;3.00;;
18879;SDS011;9572;52.378;13.404;2022-07-23T13:20:52;5.00;;;3.10;;
18879;SDS011;9572;52.378;13.404;2022-07-23T13:23:20;5.00;;;3.00;;
18879;SDS011;9572;52.378;13.404;2022-07-23T13:25:49;6.82;;;2.95;;
18879;SDS011;9572;52.378;13.404;2022-07-23T13:28:17;8.13;;;2.90;;
18879;SDS011;9572;52.378;13.404;2022-07-23T13:30:45;6.15;;;3.10;;
18879;SDS011;9572;52.378;13.404;2022-07-23T13:33:14;4.28;;;2.92;;
18879;SDS011;9572;52.378;13.404;2022-07-23T13:35:42;4.13;;;2.92;;
18879;SDS011;9572;52.378;13.404;2022-07-23T13:38:09;6.80;;;3.00;;
18879;SDS011;9572;52.378;13.404;2022-07-23T13:40:36;6.78;;;2.80;;
18879;SDS011;9572;52.378;13.404;2022-07-23T13:43:06;4.45;;;2.53;;
18879;SDS011;9572;52.378;13.404;2022-07-23T13:45:34;6.50;;;2.80;;
18879;SDS011;9572;52.378;13.404;2022-07-23T13:48:01;3.53;;;2.47;;
18879;SDS011;9572;52.378;13.404;2022-07-23T13:50:28;5.22;;;2.88;;
18879;SDS011;9572;52.378;13.404;2022-07-23T13:52:55;3.60;;;2.67;;
18879;SDS011;9572;52.378;13.404;2022-07-23T13:55:22;6.82;;;2.90;;
18879;SDS011;9572;52.378;13.404;2022-07-23T13:57:49;3.53;;;2.72;;
18879;SDS011;9572;52.378;13.404;2022-07-23T14:00:17;5.45;;;3.13;;
18879;SDS011;9572;52.378;13.404;2022-07-23T14:02:44;4.03;;;2.90;;
18879;SDS011;9572;52.378;13.404;2022-07-23T14:05:11;3.85;;;2.58;;
18879;SDS011;9572;52.378;13.404;2022-07-23T14:07:38;3.03;;;2.20;;
18879;SDS011;9572;52.378;13.404;2022-07-23T14:10:08;2.65;;;2.22;;
18879;SDS011;9572;52.378;13.404;2022-07-23T14:12:35;4.28;;;2.33;;
18879;SDS011;9572;52.378;13.404;2022-07-23T14:15:02;3.78;;;2.33;;
18879;SDS011;9572;52.378;13.404;2022-07-23T14:17:31;3.92;;;2.53;;
18879;SDS011;9572;52.378;13.404;2022-07-23T14:19:58;2.92;;;2.40;;
18879;SDS011;9572;52.378;13.404;2022-07-23T14:22:25;3.10;;;2.33;;
18879;SDS011;9572;52.378;13.404;2022-07-23T14:24:52;5.57;;;2.80;;
18879;SDS011;9572;52.378;13.404;2022-07-23T14:27:19;2.95;;;2.08;;
18879;SDS011;9572;52.378;13.404;2022-07-23T14:29:46;4.63;;;2.33;;
18879;SDS011;9572;52.378;13.404;2022-07-23T14:32:13;8.07;;;2.15;;
18879;SDS011;9572;52.378;13.404;2022-07-23T14:34:41;4.95;;;2.42;;
18879;SDS011;9572;52.378;13.404;2022-07-23T14:37:09;3.60;;;2.05;;
18879;SDS011;9572;52.378;13.404;2022-07-23T14:39:36;4.82;;;2.13;;
18879;SDS011;9572;52.378;13.404;2022-07-23T14:42:03;2.60;;;1.92;;
18879;SDS011;9572;52.378;13.404;2022-07-23T14:44:31;3.72;;;2.05;;
18879;SDS011;9572;52.378;13.404;2022-07-23T14:46:58;3.17;;;1.90;;
18879;SDS011;9572;52.378;13.404;2022-07-23T14:49:25;3.17;;;2.00;;
18879;SDS011;9572;52.378;13.404;2022-07-23T14:51:54;3.97;;;1.90;;
18879;SDS011;9572;52.378;13.404;2022-07-23T14:54:21;2.50;;;1.80;;
18879;SDS011;9572;52.378;13.404;2022-07-23T14:56:48;5.05;;;2.20;;
18879;SDS011;9572;52.378;13.404;2022-07-23T14:59:15;3.92;;;1.73;;
18879;SDS011;9572;52.378;13.404;2022-07-23T15:01:42;1.75;;;1.63;;
18879;SDS011;9572;52.378;13.404;2022-07-23T15:04:09;4.55;;;2.15;;
18879;SDS011;9572;52.378;13.404;2022-07-23T15:06:36;6.47;;;1.98;;
18879;SDS011;9572;52.378;13.404;2022-07-23T15:09:05;3.45;;;2.05;;
18879;SDS011;9572;52.378;13.404;2022-07-23T15:11:33;4.82;;;1.98;;